Kezdőlap
METAR-TAF:

METAR-TAF

Repülőterek :

Pond Inlet, Nunavut, Kanada

földrajzi szélesség: 72-42N, földrajzi hosszúság: 077-58W, magasság: 59 m

Jelenlegi meteorológiai megfigyelések

A jelentés 55 perccel ezelõtt készült, 13:00 UTC
Nyugati szél 5 kt
Hőmérséklet -15°C
Páratartalom 92%
Légköri nyomás 999 hPa
Látótávolság: 2.8 km
enyhe havazás

METAR: CYIO 111300Z AUTO 26005KT 1 3/4SM -SN M15/M16 A2949 RMK CLD MISG SLP998

Idő: 08:55 (13:55 UTC)

Előrejelzés

A jelentés 1 órával és 17 perccel ezelõtt készült, 12:38 UTC
Az előrejelzés 11-én 13 óra UTC és 12-én 01 óra UTC között érvényes
Különbözõ irányokból fújó szél 3 kt
Látótávolság: 0.8 km
800 lábon
11-én 13 óra UTC és 12-én 01 óra UTC között ideiglenes
Látótávolság: 4.8 km
Borult 2500 lábon
enyhe havazás

TAF: CYIO 111238Z 1113/1201 VRB03KT 1/2SM SN VV008 TEMPO 1113/1201 3SM -SN OVC025 RMK FCST BASED ON AUTO OBS. NXT FCST BY 111900Z

Meteorológiai megfigyelések és előrejelzések több, mint 4000 repülőtéren (METAR és TAF jelentéseket).

A térképen piros és sárga pontok jelzik az elérhető meteorológiai állomásokat.

Mozgassa az egeret a pont fölött, hogy megjelenjen az állomás neve.

Azután kattintson az időjárási megfigyelések és előrejelzések megtekintéséhez.

A térkép megváltoztatása: kattintson a fekete keresztel jelölt zöld gombra ráközelítéshez, a vonallal jelölt zöld gombra távolításhoz, vagy a zöld nyilakra a szomszédos térképek eléréséhez.


METAR-TAF: